Time;durP1;ratioP1;P1;durP2;ratioP2;P2;SDS_P1;SDS_P2;PMS_P1;PMS_P2;Temp;Humidity;BMP_temperature;BMP_pressure;BME280_temperature;BME280_humidity;BME280_pressure;Samples;Min_cycle;Max_cycle;Signal;HPM_P1;HPM_P2
2023/05/17 00:02:19;;;;;;;11.40;2.40;;;9.90;99.90;;;;;;5036458;28;20036;-71
2023/05/17 00:04:45;;;;;;;9.77;2.57;;;9.90;99.90;;;;;;5034319;28;20631;-71
2023/05/17 00:07:10;;;;;;;9.60;1.83;;;9.90;99.90;;;;;;5034517;28;20286;-72
2023/05/17 00:09:36;;;;;;;8.60;1.70;;;9.80;99.90;;;;;;5035978;28;20474;-72
2023/05/17 00:12:02;;;;;;;14.57;2.20;;;9.80;99.90;;;;;;5035759;28;20155;-72
2023/05/17 00:14:27;;;;;;;17.45;2.17;;;9.80;99.90;;;;;;5036056;28;20045;-71
2023/05/17 00:16:53;;;;;;;9.23;1.93;;;9.80;99.90;;;;;;5030208;28;20050;-71
2023/05/17 00:19:19;;;;;;;22.93;2.73;;;9.80;99.90;;;;;;5036621;28;20402;-71
2023/05/17 00:21:44;;;;;;;12.87;2.20;;;9.70;99.90;;;;;;5041719;28;20037;-71
2023/05/17 00:24:10;;;;;;;11.73;1.70;;;9.70;99.90;;;;;;5041594;28;20045;-71
2023/05/17 00:26:36;;;;;;;19.93;2.70;;;9.70;99.90;;;;;;5035090;28;20041;-72
2023/05/17 00:29:02;;;;;;;11.53;2.13;;;9.70;99.90;;;;;;5040309;28;20041;-72
2023/05/17 00:31:28;;;;;;;15.63;3.03;;;9.80;99.90;;;;;;5042649;28;20514;-72
2023/05/17 00:33:53;;;;;;;10.90;2.43;;;9.80;99.90;;;;;;5042102;28;20040;-72
2023/05/17 00:36:19;;;;;;;11.83;1.90;;;9.70;99.90;;;;;;5044095;28;20055;-72
2023/05/17 00:38:45;;;;;;;10.00;2.30;;;9.70;99.90;;;;;;5055994;22;20045;-67
2023/05/17 00:41:11;;;;;;;9.77;1.83;;;9.70;99.90;;;;;;5032288;28;20495;-67
2023/05/17 00:43:38;;;;;;;14.80;2.03;;;9.70;99.90;;;;;;5013952;28;20437;-69
2023/05/17 00:46:03;;;;;;;9.18;1.88;;;9.70;99.90;;;;;;5015735;28;20080;-70
2023/05/17 00:48:29;;;;;;;15.35;1.90;;;9.70;99.90;;;;;;5012935;28;20506;-70
2023/05/17 00:50:57;;;;;;;14.10;2.28;;;9.70;99.90;;;;;;5021117;28;20058;-69
2023/05/17 00:53:23;;;;;;;17.95;2.78;;;9.70;99.90;;;;;;5015981;28;20727;-69
2023/05/17 00:55:49;;;;;;;8.02;2.00;;;9.70;99.90;;;;;;5023748;28;20518;-68
2023/05/17 00:58:15;;;;;;;9.35;2.55;;;9.60;99.90;;;;;;5027033;28;20064;-70
2023/05/17 01:00:42;;;;;;;9.85;1.73;;;9.70;99.90;;;;;;5022378;28;20151;-69
2023/05/17 01:03:07;;;;;;;;;;;9.60;99.90;;;;;;5019269;28;20116;-69
2023/05/17 01:05:33;;;;;;;10.15;1.63;;;9.60;99.90;;;;;;5022149;28;20214;-70
2023/05/17 01:07:59;;;;;;;15.93;2.37;;;9.60;99.90;;;;;;5015966;28;20076;-69
2023/05/17 01:10:37;;;;;;;11.67;1.50;;;9.50;99.90;;;;;;5021291;28;20522;-70
2023/05/17 01:13:18;;;;;;;7.70;1.88;;;9.50;99.90;;;;;;5020288;28;20045;-69
2023/05/17 01:16:12;;;;;;;10.40;3.45;;;9.50;99.90;;;;;;5016017;28;20064;-69
2023/05/17 01:18:43;;;;;;;9.82;1.50;;;9.40;99.90;;;;;;5018962;28;20033;-69
2023/05/17 01:21:39;;;;;;;13.23;2.50;;;9.40;99.90;;;;;;5020909;28;20526;-69
2023/05/17 01:24:26;;;;;;;13.43;2.20;;;9.40;99.90;;;;;;5019539;28;20052;-70
2023/05/17 01:26:52;;;;;;;7.45;1.67;;;9.30;99.90;;;;;;5017013;28;20107;-70
2023/05/17 01:29:24;;;;;;;12.15;1.80;;;9.20;99.90;;;;;;5023627;28;20425;-68
2023/05/17 01:31:51;;;;;;;9.73;1.80;;;9.20;99.90;;;;;;5014631;28;20041;-70
2023/05/17 01:34:27;;;;;;;11.82;1.98;;;9.20;99.90;;;;;;5024099;28;20073;-69
2023/05/17 01:36:53;;;;;;;15.00;2.20;;;9.10;99.90;;;;;;5020539;28;20430;-69
2023/05/17 01:39:19;;;;;;;8.23;1.50;;;9.10;99.90;;;;;;5015314;28;20091;-70
2023/05/17 01:42:22;;;;;;;16.20;2.00;;;9.10;99.90;;;;;;5021267;28;20076;-70
2023/05/17 01:45:07;;;;;;;9.02;2.25;;;9.10;99.90;;;;;;5010695;28;20046;-70
2023/05/17 01:47:44;;;;;;;10.40;2.15;;;9.10;99.90;;;;;;5033006;28;20068;-69
2023/05/17 01:50:13;;;;;;;10.35;1.42;;;9.00;99.90;;;;;;5015116;28;20045;-69
2023/05/17 01:52:54;;;;;;;13.07;1.85;;;9.10;99.90;;;;;;5019733;28;20040;-69
2023/05/17 01:55:42;;;;;;;11.20;2.10;;;9.10;99.90;;;;;;5019493;28;20443;-70
2023/05/17 01:58:10;;;;;;;10.52;1.77;;;9.00;99.90;;;;;;5015657;28;20498;-75
2023/05/17 02:00:38;;;;;;;12.30;1.95;;;9.10;99.90;;;;;;5012066;28;20088;-70
2023/05/17 02:03:04;;;;;;;6.80;1.42;;;9.10;99.90;;;;;;5014140;28;20049;-70
2023/05/17 02:05:29;;;;;;;8.87;2.03;;;9.00;99.90;;;;;;5011069;28;20091;-70
2023/05/17 02:07:55;;;;;;;9.63;1.87;;;9.00;99.90;;;;;;5006519;28;20077;-70
2023/05/17 02:10:21;;;;;;;16.30;1.97;;;9.00;99.90;;;;;;5015735;28;20058;-70
2023/05/17 02:12:46;;;;;;;11.60;1.40;;;9.00;99.90;;;;;;5016786;28;20080;-70
2023/05/17 02:15:13;;;;;;;8.97;1.40;;;9.00;99.90;;;;;;5020252;28;20033;-70
2023/05/17 02:17:42;;;;;;;13.27;2.03;;;9.00;99.90;;;;;;5022619;28;20084;-70
2023/05/17 02:20:09;;;;;;;13.13;1.63;;;9.00;99.90;;;;;;5012825;28;20034;-70
2023/05/17 02:22:35;;;;;;;7.50;1.88;;;9.00;99.90;;;;;;5014612;28;20133;-69
2023/05/17 02:25:01;;;;;;;7.73;1.37;;;9.00;99.90;;;;;;5019133;28;20388;-70
2023/05/17 02:27:26;;;;;;;6.25;1.50;;;8.90;99.90;;;;;;5016226;28;20045;-71
2023/05/17 02:29:52;;;;;;;8.80;1.63;;;8.90;99.90;;;;;;5011416;28;20053;-70
2023/05/17 02:32:18;;;;;;;11.27;1.37;;;8.90;99.90;;;;;;5020042;28;20048;-70
2023/05/17 02:34:43;;;;;;;14.90;1.80;;;8.90;99.90;;;;;;5017284;28;20034;-69
2023/05/17 02:37:09;;;;;;;9.30;1.10;;;8.90;99.90;;;;;;5013711;28;20460;-70
2023/05/17 02:39:34;;;;;;;9.77;1.40;;;8.90;99.90;;;;;;5018015;28;20144;-70
2023/05/17 02:42:00;;;;;;;8.70;1.40;;;8.90;99.90;;;;;;5013641;28;20053;-70
2023/05/17 02:44:26;;;;;;;4.17;1.40;;;8.80;99.90;;;;;;5016076;28;20156;-69
2023/05/17 02:46:51;;;;;;;5.73;1.10;;;8.90;99.90;;;;;;5016763;28;20063;-70
2023/05/17 02:49:17;;;;;;;3.73;1.03;;;8.90;99.90;;;;;;5016250;28;20045;-70
2023/05/17 02:51:43;;;;;;;10.63;1.90;;;8.90;99.90;;;;;;5022175;28;20168;-70
2023/05/17 02:54:08;;;;;;;8.03;1.63;;;8.80;99.90;;;;;;5018352;28;20038;-69
2023/05/17 02:56:34;;;;;;;8.60;1.10;;;8.90;99.90;;;;;;5024158;28;20042;-69
2023/05/17 02:59:00;;;;;;;7.55;1.77;;;8.90;99.90;;;;;;5027064;28;20080;-69
2023/05/17 03:01:26;;;;;;;7.67;1.03;;;8.90;99.90;;;;;;5018246;28;20499;-70
2023/05/17 03:03:52;;;;;;;5.45;1.23;;;8.80;99.90;;;;;;5023188;28;20053;-69
2023/05/17 03:06:18;;;;;;;9.82;2.10;;;8.80;99.90;;;;;;5007569;28;20095;-69
2023/05/17 03:08:43;;;;;;;5.70;1.37;;;8.80;99.90;;;;;;5010280;28;20041;-70
2023/05/17 03:11:09;;;;;;;5.83;1.60;;;8.80;99.90;;;;;;5009637;28;20524;-69
2023/05/17 03:13:35;;;;;;;10.03;1.03;;;8.90;99.90;;;;;;5016924;28;20072;-69
2023/05/17 03:16:01;;;;;;;7.60;1.30;;;8.90;99.90;;;;;;5019614;28;20192;-68
2023/05/17 03:18:26;;;;;;;9.57;1.23;;;8.90;99.90;;;;;;5018817;28;20195;-69
2023/05/17 03:20:52;;;;;;;6.43;1.43;;;9.00;99.90;;;;;;5015537;28;20180;-68
2023/05/17 03:23:18;;;;;;;10.97;2.00;;;9.00;99.90;;;;;;5019714;28;20049;-69
2023/05/17 03:25:43;;;;;;;8.93;1.20;;;8.90;99.90;;;;;;5013352;28;20053;-69
2023/05/17 03:28:09;;;;;;;6.37;1.50;;;9.00;99.90;;;;;;5011614;28;20475;-69
2023/05/17 03:30:34;;;;;;;9.83;2.33;;;8.90;99.90;;;;;;5013267;28;20073;-69
2023/05/17 03:33:00;;;;;;;3.33;0.97;;;9.00;99.90;;;;;;5017894;28;20284;-69
2023/05/17 03:35:26;;;;;;;4.90;0.90;;;9.00;99.90;;;;;;5016321;28;20038;-69
2023/05/17 03:37:51;;;;;;;6.77;0.90;;;9.00;99.90;;;;;;5015495;28;20047;-68
2023/05/17 03:40:17;;;;;;;7.30;1.00;;;8.90;99.90;;;;;;5017359;28;20099;-69
2023/05/17 03:42:43;;;;;;;8.20;1.00;;;9.00;99.90;;;;;;5019473;28;20042;-68
2023/05/17 03:45:09;;;;;;;6.70;1.60;;;8.80;99.90;;;;;;5015199;28;20384;-69
2023/05/17 03:47:34;;;;;;;4.97;1.23;;;8.90;99.90;;;;;;5010768;28;20072;-69
2023/05/17 03:50:00;;;;;;;6.63;1.30;;;8.80;99.90;;;;;;5013044;28;20433;-69
2023/05/17 03:52:26;;;;;;;4.27;0.83;;;8.80;99.90;;;;;;5017622;28;20502;-69
2023/05/17 03:54:51;;;;;;;9.97;0.87;;;8.80;99.90;;;;;;5019976;28;20081;-69
2023/05/17 03:57:20;;;;;;;3.47;0.73;;;8.80;99.90;;;;;;5022267;28;20045;-69
2023/05/17 03:59:45;;;;;;;9.57;1.60;;;8.80;99.90;;;;;;5022133;28;20046;-69
2023/05/17 04:02:13;;;;;;;3.90;1.00;;;8.80;99.90;;;;;;5023623;28;20449;-69
2023/05/17 04:04:39;;;;;;;5.93;1.35;;;8.80;99.90;;;;;;5010952;28;20042;-69
2023/05/17 04:07:05;;;;;;;4.05;0.80;;;8.90;99.90;;;;;;5025122;28;20041;-69
2023/05/17 04:09:33;;;;;;;4.50;0.90;;;8.80;99.90;;;;;;5019278;28;20091;-69
2023/05/17 04:11:59;;;;;;;6.68;0.70;;;8.90;99.90;;;;;;5020632;28;20060;-70
2023/05/17 04:14:25;;;;;;;9.60;1.00;;;8.90;99.90;;;;;;5023824;28;20039;-70
2023/05/17 04:16:50;;;;;;;2.00;0.63;;;8.90;99.90;;;;;;5020154;28;20045;-69
2023/05/17 04:19:16;;;;;;;4.63;0.80;;;9.00;99.90;;;;;;5024671;28;20029;-70
2023/05/17 04:21:43;;;;;;;5.47;1.07;;;8.90;99.90;;;;;;5020177;28;20392;-69
2023/05/17 04:24:09;;;;;;;5.82;0.90;;;9.00;99.90;;;;;;4998248;28;20128;-69
2023/05/17 04:26:34;;;;;;;5.13;1.23;;;9.00;99.90;;;;;;5011110;28;20519;-69
2023/05/17 04:29:00;;;;;;;5.30;1.10;;;9.00;99.90;;;;;;5017355;28;20049;-69
2023/05/17 04:31:26;;;;;;;6.87;1.00;;;9.00;99.90;;;;;;5015209;28;20119;-69
2023/05/17 04:33:52;;;;;;;5.88;1.08;;;9.00;99.90;;;;;;5021838;28;20479;-69
2023/05/17 04:36:17;;;;;;;4.90;0.90;;;9.00;99.90;;;;;;5017018;28;20078;-69
2023/05/17 04:38:43;;;;;;;6.97;1.17;;;9.10;99.90;;;;;;5022158;28;20044;-69
2023/05/17 04:41:09;;;;;;;4.83;0.83;;;9.10;99.90;;;;;;5017909;28;20502;-69
2023/05/17 04:43:35;;;;;;;10.67;1.07;;;9.10;99.90;;;;;;5018129;28;20269;-69
2023/05/17 04:46:00;;;;;;;6.90;1.75;;;9.10;99.90;;;;;;5018437;28;20514;-69
2023/05/17 04:48:29;;;;;;;6.13;1.20;;;9.20;99.90;;;;;;5001423;28;20172;-69
2023/05/17 04:50:55;;;;;;;9.60;1.13;;;9.20;99.90;;;;;;5015760;28;20427;-69
2023/05/17 04:53:21;;;;;;;5.67;0.97;;;9.20;99.90;;;;;;5020476;28;20073;-69
2023/05/17 04:55:49;;;;;;;7.03;0.97;;;9.20;99.90;;;;;;5022082;28;20049;-69
2023/05/17 04:58:15;;;;;;;7.88;1.20;;;9.10;99.90;;;;;;5020224;28;20055;-68
2023/05/17 05:00:41;;;;;;;5.82;0.90;;;9.20;99.90;;;;;;5015883;28;20712;-68
2023/05/17 05:03:06;;;;;;;7.87;1.13;;;9.30;99.90;;;;;;5021333;28;20506;-70
2023/05/17 05:05:32;;;;;;;5.73;0.90;;;9.30;99.90;;;;;;5011997;28;20251;-70
2023/05/17 05:07:57;;;;;;;5.40;1.00;;;9.30;99.90;;;;;;5019539;28;20087;-69
2023/05/17 05:10:23;;;;;;;2.60;1.07;;;9.30;99.90;;;;;;5017448;28;20084;-69
2023/05/17 05:12:49;;;;;;;6.40;1.23;;;9.30;99.90;;;;;;5018274;28;20040;-68
2023/05/17 05:15:15;;;;;;;8.63;1.33;;;9.40;99.90;;;;;;5015619;28;20261;-69
2023/05/17 05:17:41;;;;;;;6.90;1.35;;;9.40;99.90;;;;;;5017490;28;20045;-70
2023/05/17 05:20:07;;;;;;;6.73;1.13;;;9.50;99.90;;;;;;5016183;28;20494;-69
2023/05/17 05:22:33;;;;;;;;;;;9.40;99.90;;;;;;5019863;28;20038;-69
2023/05/17 05:24:59;;;;;;;3.42;0.73;;;9.50;99.90;;;;;;5020863;28;19923;-70
2023/05/17 05:27:24;;;;;;;5.43;0.93;;;9.50;99.90;;;;;;5016849;28;20091;-69
2023/05/17 05:29:50;;;;;;;4.47;0.80;;;9.50;99.90;;;;;;5012750;28;20492;-68
2023/05/17 05:32:16;;;;;;;5.00;1.30;;;9.60;99.90;;;;;;5016336;28;20052;-69
2023/05/17 05:34:41;;;;;;;5.70;1.43;;;9.60;99.90;;;;;;5021349;28;20117;-69
2023/05/17 05:37:07;;;;;;;10.97;1.33;;;9.60;99.90;;;;;;5022226;28;20033;-69
2023/05/17 05:39:33;;;;;;;8.48;1.40;;;9.70;99.90;;;;;;5012874;28;20487;-70
2023/05/17 05:41:58;;;;;;;4.13;0.93;;;9.70;99.90;;;;;;5018228;28;20050;-73
2023/05/17 05:44:26;;;;;;;7.10;0.83;;;9.80;99.90;;;;;;5020160;28;20096;-75
2023/05/17 05:46:52;;;;;;;7.93;1.05;;;9.90;99.90;;;;;;5020238;28;20082;-69
2023/05/17 05:49:20;;;;;;;7.40;0.77;;;9.80;99.90;;;;;;5020543;28;20073;-70
2023/05/17 05:51:46;;;;;;;3.77;0.90;;;9.90;99.90;;;;;;5021599;28;20430;-76
2023/05/17 05:54:12;;;;;;;6.93;1.17;;;9.90;99.90;;;;;;5002513;28;20128;-71
2023/05/17 05:56:38;;;;;;;;;;;9.90;99.90;;;;;;5013209;28;20303;-69
2023/05/17 05:59:04;;;;;;;11.93;1.13;;;10.00;99.90;;;;;;5019680;28;19923;-69
2023/05/17 06:01:30;;;;;;;4.20;1.00;;;10.00;99.90;;;;;;5011598;28;20076;-70
2023/05/17 06:03:56;;;;;;;5.33;1.40;;;10.10;99.90;;;;;;5018319;28;20074;-73
2023/05/17 06:06:21;;;;;;;14.00;1.53;;;10.10;99.90;;;;;;5016693;28;20286;-73
2023/05/17 06:08:47;;;;;;;11.43;1.50;;;10.00;99.90;;;;;;5016082;28;20064;-69
2023/05/17 06:11:13;;;;;;;9.73;1.33;;;10.00;99.90;;;;;;5016635;28;20299;-69
2023/05/17 06:13:39;;;;;;;6.18;1.98;;;10.00;99.90;;;;;;5017243;28;20119;-69
2023/05/17 06:16:05;;;;;;;9.67;2.07;;;10.10;99.90;;;;;;5019379;28;20053;-69
2023/05/17 06:18:32;;;;;;;9.88;1.40;;;10.10;99.90;;;;;;5016357;28;20065;-68
2023/05/17 06:20:57;;;;;;;7.45;1.10;;;10.10;99.90;;;;;;5018602;28;20050;-68
2023/05/17 06:23:23;;;;;;;7.88;1.45;;;10.20;99.90;;;;;;5022367;28;20037;-68
2023/05/17 06:25:49;;;;;;;5.07;1.13;;;10.20;99.90;;;;;;5020078;28;20366;-69
2023/05/17 06:28:16;;;;;;;7.13;1.90;;;10.30;99.90;;;;;;5018548;28;20380;-68
2023/05/17 06:30:42;;;;;;;9.73;1.52;;;10.20;99.90;;;;;;5023129;28;20045;-69
2023/05/17 06:33:07;;;;;;;5.88;1.30;;;10.20;99.90;;;;;;5020556;28;20392;-70
2023/05/17 06:35:34;;;;;;;11.40;1.67;;;10.30;99.90;;;;;;5020615;28;20128;-69
2023/05/17 06:38:00;;;;;;;9.90;1.75;;;10.30;99.90;;;;;;5031206;22;20129;-83
2023/05/17 06:40:27;;;;;;;5.60;1.50;;;10.30;99.90;;;;;;5017970;28;20306;-84
2023/05/17 06:42:53;;;;;;;8.10;1.83;;;10.30;99.90;;;;;;5029454;28;20118;-83
2023/05/17 06:45:18;;;;;;;3.63;1.70;;;10.30;99.90;;;;;;5034564;28;20484;-84
2023/05/17 06:47:44;;;;;;;10.57;1.93;;;10.20;99.90;;;;;;5002703;28;20038;-82
2023/05/17 06:50:10;;;;;;;8.83;1.23;;;10.30;99.90;;;;;;5008576;22;20092;-74
2023/05/17 06:52:38;;;;;;;5.53;1.03;;;10.30;99.90;;;;;;5010498;28;20077;-74
2023/05/17 06:55:04;;;;;;;9.10;1.25;;;10.30;99.90;;;;;;4992187;28;20557;-74
2023/05/17 06:57:30;;;;;;;8.95;1.20;;;10.40;99.90;;;;;;5006073;28;20038;-74
2023/05/17 06:59:56;;;;;;;7.82;1.80;;;10.40;99.90;;;;;;5006325;28;20132;-75
2023/05/17 07:02:22;;;;;;;12.07;2.07;;;10.40;99.90;;;;;;5005293;28;20472;-72
2023/05/17 07:04:47;;;;;;;5.57;1.13;;;10.40;99.90;;;;;;5006146;28;20041;-72
2023/05/17 07:07:13;;;;;;;15.77;1.87;;;10.40;99.90;;;;;;5007305;28;20546;-73
2023/05/17 07:09:39;;;;;;;12.03;1.83;;;10.40;99.90;;;;;;4997213;28;20065;-75
2023/05/17 07:12:05;;;;;;;5.03;1.17;;;10.30;99.90;;;;;;4999938;28;20307;-73
2023/05/17 07:14:30;;;;;;;9.07;1.10;;;10.30;99.90;;;;;;5007754;28;20088;-75
2023/05/17 07:16:56;;;;;;;10.00;1.95;;;10.20;99.90;;;;;;4998100;28;20420;-75
2023/05/17 07:19:22;;;;;;;3.03;0.80;;;10.30;99.90;;;;;;4993342;28;20035;-72
2023/05/17 07:21:48;;;;;;;8.68;1.35;;;10.40;99.90;;;;;;5009178;28;20069;-72
2023/05/17 07:24:13;;;;;;;5.80;0.87;;;10.40;99.90;;;;;;4996895;28;20124;-74
2023/05/17 07:26:39;;;;;;;10.30;1.60;;;10.40;99.90;;;;;;5007066;28;20052;-73
2023/05/17 07:29:04;;;;;;;10.30;1.60;;;10.40;99.90;;;;;;5010700;28;20041;-73
2023/05/17 07:31:30;;;;;;;10.18;1.42;;;10.50;99.90;;;;;;5008015;28;20133;-72
2023/05/17 07:33:56;;;;;;;5.93;1.10;;;10.60;99.90;;;;;;5009763;28;20434;-74
2023/05/17 07:36:21;;;;;;;5.83;1.00;;;10.60;99.90;;;;;;4998105;28;20060;-72
2023/05/17 07:38:47;;;;;;;11.40;1.60;;;10.60;99.90;;;;;;4995979;28;20034;-73
2023/05/17 07:41:15;;;;;;;8.60;1.20;;;10.60;99.90;;;;;;5007842;28;21123;-74
2023/05/17 07:43:41;;;;;;;9.00;1.48;;;10.70;99.90;;;;;;5002696;28;20045;-74
2023/05/17 07:46:07;;;;;;;6.63;1.30;;;10.70;99.90;;;;;;5003507;28;20052;-72
2023/05/17 07:48:32;;;;;;;11.20;1.33;;;10.80;99.90;;;;;;5006000;28;20721;-73
2023/05/17 07:50:58;;;;;;;10.37;1.00;;;10.90;99.90;;;;;;5012706;28;20050;-72
2023/05/17 07:53:24;;;;;;;6.67;1.20;;;11.00;99.90;;;;;;5015241;28;20038;-72
2023/05/17 07:55:49;;;;;;;10.10;1.70;;;11.00;99.90;;;;;;5009764;28;20491;-72
2023/05/17 07:58:15;;;;;;;9.52;1.42;;;11.10;99.90;;;;;;5000893;28;20552;-73
2023/05/17 08:00:41;;;;;;;6.77;1.50;;;11.10;99.90;;;;;;5011523;28;20050;-71
2023/05/17 08:03:07;;;;;;;15.85;1.33;;;11.00;99.90;;;;;;4997615;28;20179;-72
2023/05/17 08:05:33;;;;;;;9.93;1.88;;;11.10;99.90;;;;;;5011283;28;20080;-71
2023/05/17 08:07:59;;;;;;;7.15;1.58;;;11.00;99.90;;;;;;5007109;28;20042;-71
2023/05/17 08:10:28;;;;;;;10.85;1.13;;;11.00;99.90;;;;;;4999927;28;20076;-71
2023/05/17 08:12:53;;;;;;;8.02;1.35;;;11.00;99.90;;;;;;4999858;28;20054;-71
2023/05/17 08:15:19;;;;;;;8.47;1.50;;;11.00;99.90;;;;;;5005306;28;20117;-74
2023/05/17 08:17:45;;;;;;;6.75;1.05;;;11.10;99.90;;;;;;5012824;28;20054;-71
2023/05/17 08:20:10;;;;;;;12.07;1.37;;;11.20;99.90;;;;;;4997952;28;20621;-72
2023/05/17 08:22:36;;;;;;;11.23;1.30;;;11.30;99.90;;;;;;5008792;28;20298;-75
2023/05/17 08:25:03;;;;;;;8.23;1.63;;;11.40;99.90;;;;;;5011032;28;20046;-73
2023/05/17 08:27:30;;;;;;;;;;;11.50;99.90;;;;;;4995714;28;20041;-73
2023/05/17 08:29:56;;;;;;;5.55;1.48;;;11.50;99.90;;;;;;5002440;28;19992;-73
2023/05/17 08:32:24;;;;;;;10.57;1.75;;;11.60;99.90;;;;;;5009035;28;20436;-74
2023/05/17 08:34:49;;;;;;;14.40;1.60;;;11.60;99.90;;;;;;5010609;28;20419;-72
2023/05/17 08:37:16;;;;;;;8.80;1.40;;;11.60;99.90;;;;;;5007282;28;20041;-73
2023/05/17 08:39:42;;;;;;;8.02;1.38;;;11.60;99.90;;;;;;5002510;28;20030;-71
2023/05/17 08:42:07;;;;;;;9.87;1.30;;;11.60;99.90;;;;;;4995063;28;20044;-72
2023/05/17 08:44:33;;;;;;;7.77;1.60;;;11.70;99.90;;;;;;5016257;28;20291;-75
2023/05/17 08:47:01;;;;;;;7.13;1.25;;;11.70;99.90;;;;;;5008433;28;20398;-71
2023/05/17 08:49:28;;;;;;;7.07;1.15;;;11.70;99.90;;;;;;5009739;28;20427;-71
2023/05/17 08:51:58;;;;;;;4.88;1.38;;;11.70;99.90;;;;;;5014653;28;20062;-72
2023/05/17 08:54:24;;;;;;;8.27;1.38;;;11.70;99.90;;;;;;5008500;28;20044;-72
2023/05/17 08:56:52;;;;;;;12.20;1.40;;;11.70;99.90;;;;;;5004254;28;20038;-71
2023/05/17 08:59:18;;;;;;;6.55;1.10;;;11.70;99.90;;;;;;5008229;28;20120;-75
2023/05/17 09:01:48;;;;;;;6.25;0.93;;;11.80;99.90;;;;;;5018960;28;20046;-72
2023/05/17 09:04:16;;;;;;;7.95;1.58;;;11.90;99.90;;;;;;5013013;28;20147;-71
2023/05/17 09:06:43;;;;;;;8.55;1.00;;;11.90;99.90;;;;;;5007374;28;20050;-72
2023/05/17 09:09:09;;;;;;;8.75;1.13;;;11.80;99.90;;;;;;5008116;28;20120;-75
2023/05/17 09:11:35;;;;;;;11.53;1.47;;;11.80;99.90;;;;;;5008508;28;20137;-72
2023/05/17 09:14:05;;;;;;;7.18;1.13;;;11.90;99.90;;;;;;5011478;28;20045;-72
2023/05/17 09:16:33;;;;;;;5.18;1.05;;;12.10;99.90;;;;;;5012092;28;20041;-71
2023/05/17 09:18:59;;;;;;;7.53;1.60;;;12.20;99.90;;;;;;4992485;28;20092;-74
2023/05/17 09:21:27;;;;;;;4.28;1.17;;;12.30;99.90;;;;;;5013215;28;20041;-75
2023/05/17 09:23:53;;;;;;;9.15;1.40;;;12.40;99.90;;;;;;5006013;28;20415;-71
2023/05/17 09:26:20;;;;;;;9.82;1.65;;;12.60;99.90;;;;;;5015740;28;20102;-72
2023/05/17 09:28:47;;;;;;;5.85;0.95;;;12.70;99.90;;;;;;5010217;28;20528;-71
2023/05/17 09:31:14;;;;;;;;;;;12.70;99.90;;;;;;5017664;28;20104;-71
2023/05/17 09:33:48;;;;;;;10.13;1.20;;;12.70;99.90;;;;;;5007714;28;19929;-72
2023/05/17 09:36:18;;;;;;;8.45;0.95;;;12.80;99.90;;;;;;5022171;28;20283;-73
2023/05/17 09:39:00;;;;;;;6.78;1.25;;;12.80;99.90;;;;;;5008918;28;20436;-74
2023/05/17 09:41:29;;;;;;;5.53;1.13;;;12.80;99.90;;;;;;5010095;28;20300;-73
2023/05/17 09:44:08;;;;;;;6.22;1.35;;;12.80;99.90;;;;;;5005438;28;20046;-73
2023/05/17 09:46:34;;;;;;;5.85;1.30;;;12.70;99.90;;;;;;5000228;28;20092;-71
2023/05/17 09:49:03;;;;;;;7.00;0.90;;;12.70;99.90;;;;;;5011278;28;20090;-71
2023/05/17 09:51:33;;;;;;;9.52;0.88;;;12.80;99.90;;;;;;5003993;28;20436;-71
2023/05/17 09:53:59;;;;;;;4.35;1.23;;;12.80;99.90;;;;;;5004938;28;20491;-71
2023/05/17 09:56:31;;;;;;;11.43;1.60;;;12.80;99.90;;;;;;5017730;28;20179;-74
2023/05/17 09:59:00;;;;;;;7.68;1.48;;;13.00;99.90;;;;;;4997242;28;20463;-70
2023/05/17 10:01:28;;;;;;;6.90;1.20;;;13.20;99.90;;;;;;5001444;28;20132;-69
2023/05/17 10:03:54;;;;;;;5.93;0.82;;;13.30;99.90;;;;;;5007920;28;20034;-70
2023/05/17 10:06:24;;;;;;;5.03;0.90;;;13.40;99.20;;;;;;5001825;28;20084;-70
2023/05/17 10:08:54;;;;;;;6.85;0.73;;;13.50;98.90;;;;;;4995238;28;20043;-70
2023/05/17 10:11:32;;;;;;;8.32;1.25;;;13.40;98.10;;;;;;5014408;28;20043;-70
2023/05/17 10:14:08;;;;;;;8.95;1.77;;;13.40;97.80;;;;;;5006962;28;20373;-70
2023/05/17 10:16:36;;;;;;;5.43;1.25;;;13.40;96.80;;;;;;5013069;28;20057;-70
2023/05/17 10:19:03;;;;;;;5.85;0.80;;;13.50;96.20;;;;;;5004031;28;20033;-70
2023/05/17 10:21:33;;;;;;;4.47;1.00;;;13.50;96.10;;;;;;5013778;28;20083;-70
2023/05/17 10:24:01;;;;;;;8.50;1.25;;;13.50;95.10;;;;;;5015593;28;20073;-70
2023/05/17 10:26:28;;;;;;;5.72;1.08;;;13.50;95.10;;;;;;5017161;28;20056;-70
2023/05/17 10:28:59;;;;;;;7.28;0.98;;;13.40;94.80;;;;;;4990271;28;20408;-70
2023/05/17 10:31:28;;;;;;;6.00;1.05;;;13.50;94.90;;;;;;5021386;28;20065;-70
2023/05/17 10:33:54;;;;;;;7.22;0.82;;;13.50;94.20;;;;;;4995720;28;20045;-70
2023/05/17 10:36:22;;;;;;;2.50;0.70;;;13.50;93.50;;;;;;5005385;28;20368;-70
2023/05/17 10:38:49;;;;;;;6.50;1.20;;;13.40;94.00;;;;;;5007101;28;20132;-70
2023/05/17 10:41:17;;;;;;;5.72;1.23;;;13.40;94.20;;;;;;5008511;28;20064;-70
2023/05/17 10:43:44;;;;;;;5.53;0.90;;;13.40;94.30;;;;;;4978838;28;20073;-70
2023/05/17 10:46:20;;;;;;;6.75;1.20;;;13.40;94.60;;;;;;4998513;28;20041;-70
2023/05/17 10:48:50;;;;;;;3.60;0.90;;;13.60;94.60;;;;;;5008198;28;20139;-70
2023/05/17 10:51:23;;;;;;;4.75;1.00;;;13.80;94.50;;;;;;5013246;28;20128;-70
2023/05/17 10:54:17;;;;;;;8.80;1.30;;;13.80;94.00;;;;;;5006246;28;20487;-70
2023/05/17 10:56:54;;;;;;;5.03;1.20;;;13.80;94.30;;;;;;4998326;28;20052;-70
2023/05/17 10:59:25;;;;;;;3.97;1.10;;;13.80;94.60;;;;;;5001139;28;20546;-70
2023/05/17 11:01:56;;;;;;;7.60;1.00;;;13.70;94.50;;;;;;5001663;28;20053;-70
2023/05/17 11:04:33;;;;;;;8.93;1.02;;;13.60;94.70;;;;;;5001901;28;20044;-70
2023/05/17 11:07:24;;;;;;;5.38;1.38;;;13.50;94.70;;;;;;5004372;28;20034;-70
2023/05/17 11:10:09;;;;;;;6.82;1.65;;;13.50;95.20;;;;;;5011432;28;20117;-70
2023/05/17 11:12:42;;;;;;;6.28;1.40;;;13.50;95.40;;;;;;5005691;28;20047;-70
2023/05/17 11:15:09;;;;;;;8.50;1.27;;;13.50;95.30;;;;;;5006662;28;20121;-70
2023/05/17 11:17:45;;;;;;;5.80;1.27;;;13.60;95.70;;;;;;5013703;28;20483;-70
2023/05/17 11:20:14;;;;;;;9.57;1.23;;;13.60;95.70;;;;;;5020384;28;20045;-70
2023/05/17 11:22:54;;;;;;;7.80;1.48;;;13.60;95.80;;;;;;5008535;28;20120;-70
2023/05/17 11:25:20;;;;;;;6.35;1.20;;;13.60;95.60;;;;;;4996216;28;20041;-70
2023/05/17 11:27:45;;;;;;;;;;;13.70;96.00;;;;;;5004209;28;20054;-70
2023/05/17 11:30:18;;;;;;;12.10;1.70;;;13.80;95.80;;;;;;5006096;28;19929;-70
2023/05/17 11:32:52;;;;;;;8.32;1.10;;;13.80;95.60;;;;;;4993461;28;20111;-70
2023/05/17 11:35:22;;;;;;;6.10;1.05;;;13.80;95.20;;;;;;5000812;28;20107;-70
2023/05/17 11:38:12;;;;;;;6.05;1.20;;;13.70;95.20;;;;;;5001181;28;20065;-70
2023/05/17 11:40:38;;;;;;;11.60;1.50;;;13.70;95.60;;;;;;5006673;28;20049;-70
2023/05/17 11:43:16;;;;;;;7.10;1.23;;;13.60;95.40;;;;;;4999018;28;20053;-70
2023/05/17 11:45:47;;;;;;;5.43;1.15;;;13.50;95.60;;;;;;5010870;28;20093;-70
2023/05/17 11:48:13;;;;;;;7.18;1.70;;;13.50;95.90;;;;;;4993813;28;20050;-70
2023/05/17 11:50:41;;;;;;;6.47;0.90;;;13.40;95.90;;;;;;5005768;28;20042;-70
2023/05/17 11:53:08;;;;;;;7.60;1.55;;;13.40;96.20;;;;;;5007188;28;20074;-70
2023/05/17 11:55:51;;;;;;;10.75;1.45;;;13.50;96.30;;;;;;5008247;28;20046;-70
2023/05/17 11:58:23;;;;;;;6.95;1.45;;;13.50;95.70;;;;;;5013462;28;20046;-70
2023/05/17 12:00:53;;;;;;;4.82;1.02;;;13.40;95.60;;;;;;5003228;28;20246;-70
2023/05/17 12:03:29;;;;;;;6.80;0.80;;;13.50;95.50;;;;;;5007364;28;20044;-70
2023/05/17 12:06:04;;;;;;;5.20;1.27;;;13.60;95.50;;;;;;5013043;28;20297;-70
2023/05/17 12:08:33;;;;;;;3.60;1.17;;;13.70;96.00;;;;;;5005793;28;20088;-70
2023/05/17 12:10:58;;;;;;;6.50;1.10;;;13.90;95.50;;;;;;4971958;28;20060;-70
2023/05/17 12:13:28;;;;;;;9.55;1.38;;;14.00;94.90;;;;;;4999467;28;20041;-70
2023/05/17 12:15:56;;;;;;;6.75;1.17;;;14.00;94.70;;;;;;4992118;28;20074;-70
2023/05/17 12:18:22;;;;;;;7.95;1.08;;;14.30;95.30;;;;;;4999659;28;20132;-70
2023/05/17 12:20:59;;;;;;;6.72;0.98;;;14.40;94.10;;;;;;4990566;28;20081;-70
2023/05/17 12:23:39;;;;;;;6.90;1.20;;;14.40;93.30;;;;;;5006528;28;20051;-70
2023/05/17 12:26:14;;;;;;;3.80;1.13;;;14.20;93.20;;;;;;5003231;28;20128;-70
2023/05/17 12:28:41;;;;;;;7.15;1.33;;;14.20;93.20;;;;;;5018472;28;20045;-70
2023/05/17 12:31:13;;;;;;;3.40;0.93;;;14.30;93.10;;;;;;5002629;28;20065;-70
2023/05/17 12:33:41;;;;;;;5.40;0.90;;;14.60;93.40;;;;;;5002886;28;20077;-70
2023/05/17 12:36:08;;;;;;;5.75;1.85;;;14.80;93.00;;;;;;5012038;28;20042;-71
2023/05/17 12:38:36;;;;;;;2.83;1.58;;;15.00;91.90;;;;;;4980554;28;20057;-70
2023/05/17 12:41:04;;;;;;;7.63;1.13;;;15.20;91.70;;;;;;4996511;28;20466;-70
2023/05/17 12:43:32;;;;;;;4.25;0.70;;;15.10;90.50;;;;;;5002348;28;20128;-70
2023/05/17 12:46:06;;;;;;;5.13;1.52;;;15.00;90.50;;;;;;4993874;28;20407;-70
2023/05/17 12:48:36;;;;;;;4.03;0.80;;;15.10;90.20;;;;;;5003786;28;20052;-71
2023/05/17 12:51:22;;;;;;;8.68;0.95;;;15.10;90.20;;;;;;5002878;28;20247;-70
2023/05/17 12:53:55;;;;;;;5.68;1.00;;;15.20;87.00;;;;;;4994169;28;20187;-70
2023/05/17 12:56:23;;;;;;;9.50;1.30;;;15.10;88.00;;;;;;4999582;28;20091;-70